createdAt,value
2023-01-29T00:01:54.793Z,100986.84
2023-01-29T00:04:21.858Z,100986.88
2023-01-29T00:06:48.867Z,100987.30
2023-01-29T00:09:15.807Z,100977.02
2023-01-29T00:11:42.704Z,100970.84
2023-01-29T00:14:09.693Z,100969.25
2023-01-29T00:16:36.593Z,100964.11
2023-01-29T00:19:03.897Z,100967.61
2023-01-29T00:21:32.191Z,100966.52
2023-01-29T00:23:59.931Z,100959.14
2023-01-29T00:26:27.200Z,100956.54
2023-01-29T00:28:54.206Z,100953.42
2023-01-29T00:31:23.761Z,100950.48
2023-01-29T00:33:50.694Z,100950.75
2023-01-29T00:36:18.719Z,100950.53
2023-01-29T00:38:46.487Z,100954.27
2023-01-29T00:41:32.987Z,100946.42
2023-01-29T00:44:19.274Z,100949.84
2023-01-29T00:46:46.349Z,100944.81
2023-01-29T00:49:13.679Z,100939.80
2023-01-29T00:51:41.588Z,100934.13
2023-01-29T00:54:11.035Z,100933.33
2023-01-29T00:56:39.195Z,100938.02
2023-01-29T00:59:06.383Z,100932.51
2023-01-29T01:01:50.714Z,100924.98
2023-01-29T01:04:17.749Z,100926.21
2023-01-29T01:06:44.910Z,100919.59
2023-01-29T01:09:30.743Z,100915.83
2023-01-29T01:11:57.656Z,100902.34
2023-01-29T01:14:25.416Z,100896.16
2023-01-29T01:16:52.355Z,100893.72
2023-01-29T01:19:19.440Z,100889.83
2023-01-29T01:21:48.390Z,100885.90
2023-01-29T01:24:16.038Z,100882.67
2023-01-29T01:26:43.575Z,100888.33
2023-01-29T01:29:10.500Z,100884.23
2023-01-29T01:31:37.574Z,100883.71
2023-01-29T01:34:04.708Z,100884.50
2023-01-29T01:36:32.407Z,100886.20
2023-01-29T01:38:59.427Z,100890.66
2023-01-29T01:41:27.553Z,100890.16
2023-01-29T01:43:57.557Z,100887.98
2023-01-29T01:46:27.627Z,100886.98
2023-01-29T01:48:59.810Z,100884.02
2023-01-29T01:51:29.973Z,100895.09
2023-01-29T01:54:02.674Z,100892.53
2023-01-29T01:56:38.605Z,100898.99
2023-01-29T01:59:07.011Z,100894.69
2023-01-29T02:01:34.416Z,100889.76
2023-01-29T02:04:22.624Z,100893.04
2023-01-29T02:07:08.287Z,100895.45
2023-01-29T02:09:40.426Z,100893.91
2023-01-29T02:12:09.994Z,100895.09
2023-01-29T02:14:40.279Z,100896.81
2023-01-29T02:17:07.746Z,100890.52
2023-01-29T02:19:45.733Z,100892.42
2023-01-29T02:22:30.688Z,100886.98
2023-01-29T02:25:12.204Z,100887.13
2023-01-29T02:27:58.990Z,100881.35
2023-01-29T02:30:34.666Z,100875.79
2023-01-29T02:33:07.715Z,100873.38
2023-01-29T02:35:42.671Z,100871.21
2023-01-29T02:38:18.963Z,100868.02
2023-01-29T02:40:51.977Z,100867.20
2023-01-29T02:43:30.351Z,100862.28
2023-01-29T02:46:07.429Z,100860.55
2023-01-29T02:48:44.731Z,100855.24
2023-01-29T02:51:20.287Z,100851.40
2023-01-29T02:53:55.103Z,100851.80
2023-01-29T02:56:29.035Z,100854.94
2023-01-29T02:59:01.539Z,100859.02
2023-01-29T03:01:34.800Z,100858.67
2023-01-29T03:04:08.101Z,100849.14
2023-01-29T03:06:40.120Z,100846.61
2023-01-29T03:09:12.333Z,100844.39
2023-01-29T03:11:43.563Z,100841.46
2023-01-29T03:14:14.430Z,100841.64
2023-01-29T03:16:46.956Z,100837.89
2023-01-29T03:19:17.763Z,100838.89
2023-01-29T03:21:55.460Z,100838.84
2023-01-29T03:24:45.400Z,100836.94
2023-01-29T03:27:33.811Z,100831.98
2023-01-29T03:30:20.505Z,100832.52
2023-01-29T03:32:52.457Z,100838.23
2023-01-29T03:35:36.866Z,100838.51
2023-01-29T03:38:07.477Z,100841.26
2023-01-29T03:40:44.365Z,100834.98
2023-01-29T03:43:16.223Z,100834.55
2023-01-29T03:45:58.134Z,100837.48
2023-01-29T03:48:35.026Z,100838.39
2023-01-29T03:51:10.560Z,100838.85
2023-01-29T03:53:46.155Z,100837.11
2023-01-29T03:56:26.627Z,100831.17
2023-01-29T03:58:58.529Z,100831.30
2023-01-29T04:01:34.382Z,100828.31
2023-01-29T04:04:10.313Z,100822.23
2023-01-29T04:06:41.859Z,100822.49
2023-01-29T04:09:14.952Z,100820.80
2023-01-29T04:11:49.392Z,100821.35
2023-01-29T04:14:17.540Z,100817.44
2023-01-29T04:16:48.760Z,100821.71
2023-01-29T04:19:31.358Z,100818.79
2023-01-29T04:22:06.596Z,100814.32
2023-01-29T04:24:34.718Z,100813.00
2023-01-29T04:27:17.778Z,100800.77
2023-01-29T04:29:58.593Z,100796.20
2023-01-29T04:32:33.186Z,100792.26
2023-01-29T04:35:17.994Z,100800.95
2023-01-29T04:37:51.841Z,100799.44
2023-01-29T04:40:27.111Z,100799.44
2023-01-29T04:43:05.271Z,100799.09
2023-01-29T04:45:41.700Z,100802.36
2023-01-29T04:48:18.353Z,100801.04
2023-01-29T04:50:48.122Z,100800.40
2023-01-29T04:53:20.615Z,100792.70
2023-01-29T04:55:51.066Z,100790.13
2023-01-29T04:58:31.482Z,100781.91
2023-01-29T05:01:00.049Z,100780.39
2023-01-29T05:03:29.597Z,100779.89
2023-01-29T05:05:59.310Z,100779.53
2023-01-29T05:08:29.309Z,100778.66
2023-01-29T05:10:58.179Z,100782.77
2023-01-29T05:13:26.994Z,100783.46
2023-01-29T05:15:58.967Z,100780.40
2023-01-29T05:18:25.999Z,100779.02
2023-01-29T05:20:57.670Z,100780.66
2023-01-29T05:23:25.325Z,100779.30
2023-01-29T05:25:53.097Z,100776.92
2023-01-29T05:28:20.536Z,100776.05
2023-01-29T05:30:49.646Z,100772.64
2023-01-29T05:33:18.389Z,100769.73
2023-01-29T05:35:45.662Z,100766.54
2023-01-29T05:38:13.150Z,100766.20
2023-01-29T05:40:40.700Z,100760.05
2023-01-29T05:43:15.115Z,100762.06
2023-01-29T05:45:41.867Z,100754.73
2023-01-29T05:48:08.852Z,100755.08
2023-01-29T05:50:36.181Z,100753.54
2023-01-29T05:53:04.148Z,100749.98
2023-01-29T05:55:31.525Z,100751.84
2023-01-29T05:57:58.739Z,100755.42
2023-01-29T06:00:25.988Z,100748.92
2023-01-29T06:02:53.047Z,100742.26
2023-01-29T06:05:20.035Z,100743.84
2023-01-29T06:07:47.102Z,100755.48
2023-01-29T06:10:16.129Z,100762.23
2023-01-29T06:12:43.430Z,100767.50
2023-01-29T06:15:13.454Z,100763.04
2023-01-29T06:17:40.371Z,100766.56
2023-01-29T06:20:09.642Z,100763.33
2023-01-29T06:22:36.840Z,100759.61
2023-01-29T06:25:04.400Z,100758.27
2023-01-29T06:27:31.209Z,100765.50
2023-01-29T06:29:58.142Z,100766.52
2023-01-29T06:32:25.215Z,100762.65
2023-01-29T06:34:53.470Z,100757.39
2023-01-29T06:37:20.737Z,100757.73
2023-01-29T06:39:47.742Z,100756.73
2023-01-29T06:42:14.541Z,100756.42
2023-01-29T06:44:41.339Z,100757.10
2023-01-29T06:47:08.625Z,100758.10
2023-01-29T06:49:35.456Z,100761.55
2023-01-29T06:52:02.483Z,100759.05
2023-01-29T06:54:29.514Z,100754.98
2023-01-29T06:56:56.468Z,100757.37
2023-01-29T06:59:23.249Z,100761.61
2023-01-29T07:01:50.400Z,100762.77
2023-01-29T07:04:17.327Z,100760.41
2023-01-29T07:06:44.176Z,100759.73
2023-01-29T07:09:12.518Z,100755.52
2023-01-29T07:11:39.568Z,100739.15
2023-01-29T07:14:06.376Z,100732.53
2023-01-29T07:16:34.100Z,100726.92
2023-01-29T07:19:01.130Z,100735.88
2023-01-29T07:21:28.261Z,100739.77
2023-01-29T07:23:55.299Z,100739.60
2023-01-29T07:26:22.344Z,100742.06
2023-01-29T07:28:55.426Z,100739.33
2023-01-29T07:31:26.542Z,100745.42
2023-01-29T07:33:53.541Z,100754.02
2023-01-29T07:36:20.480Z,100760.45
2023-01-29T07:38:52.093Z,100760.33
2023-01-29T07:41:19.534Z,100766.63
2023-01-29T07:43:46.731Z,100764.62
2023-01-29T07:46:13.858Z,100768.88
2023-01-29T07:48:40.835Z,100765.62
2023-01-29T07:51:08.589Z,100766.01
2023-01-29T07:53:36.174Z,100760.09
2023-01-29T07:56:03.416Z,100757.46
2023-01-29T07:58:30.475Z,100747.27
2023-01-29T08:00:57.764Z,100745.50
2023-01-29T08:03:24.550Z,100737.66
2023-01-29T08:05:51.474Z,100742.84
2023-01-29T08:08:19.450Z,100742.37
2023-01-29T08:10:46.369Z,100744.14
2023-01-29T08:13:13.439Z,100739.78
2023-01-29T08:15:40.229Z,100736.49
2023-01-29T08:18:07.576Z,100726.61
2023-01-29T08:20:35.034Z,100723.02
2023-01-29T08:23:06.169Z,100719.43
2023-01-29T08:25:33.728Z,100724.96
2023-01-29T08:28:01.741Z,100727.20
2023-01-29T08:30:29.933Z,100725.54
2023-01-29T08:32:56.838Z,100727.25
2023-01-29T08:35:24.583Z,100729.33
2023-01-29T08:37:56.505Z,100721.85
2023-01-29T08:40:23.779Z,100729.95
2023-01-29T08:42:50.574Z,100729.05
2023-01-29T08:45:18.300Z,100731.71
2023-01-29T08:47:49.753Z,100722.89
2023-01-29T08:50:17.661Z,100721.03
2023-01-29T08:52:45.138Z,100720.69
2023-01-29T08:55:13.150Z,100710.80
2023-01-29T08:57:40.424Z,100709.61
2023-01-29T09:00:09.398Z,100706.91
2023-01-29T09:02:36.467Z,100710.30
2023-01-29T09:05:03.431Z,100709.41
2023-01-29T09:07:31.582Z,100711.13
2023-01-29T09:09:58.452Z,100707.23
2023-01-29T09:12:25.390Z,100702.02
2023-01-29T09:14:52.500Z,100698.02
2023-01-29T09:17:19.585Z,100695.39
2023-01-29T09:19:46.360Z,100690.86
2023-01-29T09:22:13.336Z,100687.15
2023-01-29T09:24:40.801Z,100684.08
2023-01-29T09:27:07.961Z,100687.87
2023-01-29T09:29:37.627Z,100688.42
2023-01-29T09:32:04.974Z,100683.29
2023-01-29T09:34:33.693Z,100680.02
2023-01-29T09:37:00.502Z,100683.91
2023-01-29T09:39:27.656Z,100679.61
2023-01-29T09:42:01.029Z,100677.01
2023-01-29T09:44:35.009Z,100674.70
2023-01-29T09:47:05.234Z,100675.38
2023-01-29T09:49:37.916Z,100664.71
2023-01-29T09:52:12.038Z,100662.37
2023-01-29T09:54:49.916Z,100668.52
2023-01-29T09:57:23.335Z,100663.61
2023-01-29T09:59:50.713Z,100664.30
2023-01-29T10:02:37.546Z,100661.48
2023-01-29T10:05:24.533Z,100658.23
2023-01-29T10:08:34.156Z,100653.05
2023-01-29T10:11:08.499Z,100651.30
2023-01-29T10:13:49.420Z,100651.47
2023-01-29T10:16:29.100Z,100651.40
2023-01-29T10:19:34.341Z,100648.41
2023-01-29T10:22:14.147Z,100638.34
2023-01-29T10:24:45.896Z,100637.91
2023-01-29T10:27:18.299Z,100633.10
2023-01-29T10:29:48.672Z,100635.33
2023-01-29T10:32:19.331Z,100631.19
2023-01-29T10:34:51.379Z,100631.70
2023-01-29T10:37:21.802Z,100629.80
2023-01-29T10:39:48.734Z,100629.07
2023-01-29T10:42:30.643Z,100630.84
2023-01-29T10:45:20.673Z,100631.31
2023-01-29T10:48:04.926Z,100631.49
2023-01-29T10:50:42.882Z,100627.71
2023-01-29T10:53:28.559Z,100627.34
2023-01-29T10:56:10.750Z,100621.31
2023-01-29T10:58:49.798Z,100614.63
2023-01-29T11:01:17.651Z,100612.93
2023-01-29T11:03:45.064Z,100608.15
2023-01-29T11:06:17.850Z,100608.78
2023-01-29T11:08:52.910Z,100607.41
2023-01-29T11:11:22.498Z,100604.75
2023-01-29T11:13:57.282Z,100599.30
2023-01-29T11:16:24.290Z,100598.14
2023-01-29T11:19:00.374Z,100594.23
2023-01-29T11:21:29.577Z,100588.96
2023-01-29T11:24:12.804Z,100585.58
2023-01-29T11:26:42.194Z,100580.11
2023-01-29T11:29:38.740Z,100571.57
2023-01-29T11:32:07.958Z,100554.52
2023-01-29T11:34:34.812Z,100545.86
2023-01-29T11:37:03.555Z,100544.14
2023-01-29T11:39:32.186Z,100536.22
2023-01-29T11:42:01.679Z,100533.44
2023-01-29T11:44:36.761Z,100529.52
2023-01-29T11:47:14.458Z,100526.59
2023-01-29T11:49:46.068Z,100522.49
2023-01-29T11:52:15.683Z,100520.60
2023-01-29T11:54:50.697Z,100518.69
2023-01-29T11:57:36.692Z,100515.55
2023-01-29T12:00:07.926Z,100512.63
2023-01-29T12:02:40.207Z,100508.28
2023-01-29T12:05:16.340Z,100499.83
2023-01-29T12:07:45.818Z,100491.07
2023-01-29T12:10:33.707Z,100493.61
2023-01-29T12:13:20.341Z,100494.58
2023-01-29T12:15:48.367Z,100488.21
2023-01-29T12:18:24.149Z,100482.72
2023-01-29T12:20:58.938Z,100478.77
2023-01-29T12:23:36.608Z,100473.25
2023-01-29T12:26:10.888Z,100476.35
2023-01-29T12:28:47.814Z,100475.48
2023-01-29T12:31:30.824Z,100468.14
2023-01-29T12:34:04.215Z,100469.74
2023-01-29T12:36:37.673Z,100465.52
2023-01-29T12:39:05.061Z,100463.30
2023-01-29T12:41:45.096Z,100461.92
2023-01-29T12:44:19.478Z,100460.41
2023-01-29T12:46:52.985Z,100454.94
2023-01-29T12:49:24.382Z,100450.34
2023-01-29T12:51:59.233Z,100445.20
2023-01-29T12:54:33.534Z,100446.23
2023-01-29T12:57:05.073Z,100441.57
2023-01-29T12:59:38.173Z,100437.79
2023-01-29T13:02:16.189Z,100443.41
2023-01-29T13:04:47.866Z,100434.20
2023-01-29T13:07:23.925Z,100441.13
2023-01-29T13:09:56.661Z,100437.35
2023-01-29T13:12:27.101Z,100450.42
2023-01-29T13:15:01.627Z,100457.22
2023-01-29T13:17:33.916Z,100456.87
2023-01-29T13:20:06.451Z,100460.42
2023-01-29T13:22:38.178Z,100457.83
2023-01-29T13:25:06.747Z,100458.17
2023-01-29T13:27:36.320Z,100453.04
2023-01-29T13:30:04.472Z,100452.16
2023-01-29T13:32:36.289Z,100453.66
2023-01-29T13:35:07.951Z,100450.09
2023-01-29T13:37:41.013Z,100445.31
2023-01-29T13:40:20.654Z,100438.11
2023-01-29T13:42:50.517Z,100434.69
2023-01-29T13:45:24.807Z,100427.84
2023-01-29T13:47:53.610Z,100420.65
2023-01-29T13:50:31.282Z,100411.40
2023-01-29T13:53:02.163Z,100413.09
2023-01-29T13:55:32.707Z,100421.45
2023-01-29T13:58:01.389Z,100419.73
2023-01-29T14:01:01.665Z,100414.06
2023-01-29T14:04:03.657Z,100416.73
2023-01-29T14:06:45.617Z,100420.55
2023-01-29T14:09:57.333Z,100424.61
2023-01-29T14:12:51.719Z,100435.69
2023-01-29T14:15:30.827Z,100436.00
2023-01-29T14:18:25.355Z,100446.40
2023-01-29T14:21:07.041Z,100454.38
2023-01-29T14:23:51.525Z,100460.17
2023-01-29T14:26:34.409Z,100456.08
2023-01-29T14:29:06.220Z,100442.06
2023-01-29T14:31:38.548Z,100433.20
2023-01-29T14:34:09.201Z,100433.04
2023-01-29T14:36:43.546Z,100441.56
2023-01-29T14:39:25.411Z,100437.98
2023-01-29T14:41:54.185Z,100427.77
2023-01-29T14:44:58.232Z,100409.50
2023-01-29T14:47:55.623Z,100410.52
2023-01-29T14:50:49.024Z,100412.56
2023-01-29T14:53:22.325Z,100403.02
2023-01-29T14:55:55.879Z,100415.13
2023-01-29T14:58:29.297Z,100421.61
2023-01-29T15:00:59.765Z,100423.83
2023-01-29T15:03:37.513Z,100425.73
2023-01-29T15:06:05.715Z,100429.32
2023-01-29T15:08:40.503Z,100421.11
2023-01-29T15:11:33.131Z,100416.34
2023-01-29T15:14:23.835Z,100412.23
2023-01-29T15:17:00.668Z,100404.55
2023-01-29T15:19:35.673Z,100398.93
2023-01-29T15:22:10.773Z,100398.10
2023-01-29T15:24:38.174Z,100394.69
2023-01-29T15:27:07.684Z,100391.45
2023-01-29T15:29:35.189Z,100390.42
2023-01-29T15:32:04.255Z,100389.08
2023-01-29T15:34:31.646Z,100385.48
2023-01-29T15:36:59.117Z,100377.10
2023-01-29T15:39:28.566Z,100376.95
2023-01-29T15:42:13.424Z,100380.54
2023-01-29T15:44:47.573Z,100377.46
2023-01-29T15:47:17.670Z,100376.29
2023-01-29T15:49:47.712Z,100377.83
2023-01-29T15:52:21.885Z,100371.17
2023-01-29T15:55:02.324Z,100368.96
2023-01-29T15:57:37.420Z,100367.29
2023-01-29T16:00:05.245Z,100361.52
2023-01-29T16:02:42.846Z,100357.42
2023-01-29T16:05:15.811Z,100358.77
2023-01-29T16:07:43.854Z,100357.55
2023-01-29T16:10:18.295Z,100354.98
2023-01-29T16:12:47.565Z,100359.08
2023-01-29T16:15:22.626Z,100364.55
2023-01-29T16:17:50.887Z,100368.67
2023-01-29T16:20:34.763Z,100364.41
2023-01-29T16:23:02.413Z,100366.80
2023-01-29T16:25:31.326Z,100370.02
2023-01-29T16:27:58.767Z,100372.41
2023-01-29T16:30:29.015Z,100371.39
2023-01-29T16:33:01.737Z,100372.59
2023-01-29T16:35:28.924Z,100371.39
2023-01-29T16:38:04.352Z,100374.81
2023-01-29T16:40:33.570Z,100378.74
2023-01-29T16:43:22.844Z,100375.86
2023-01-29T16:46:04.819Z,100378.13
2023-01-29T16:48:34.792Z,100377.95
2023-01-29T16:51:13.632Z,100376.57
2023-01-29T16:53:40.932Z,100372.64
2023-01-29T16:56:10.143Z,100369.20
2023-01-29T16:58:37.483Z,100376.38
2023-01-29T17:01:09.041Z,100367.52
2023-01-29T17:03:37.324Z,100365.16
2023-01-29T17:06:14.598Z,100354.91
2023-01-29T17:08:44.217Z,100356.64
2023-01-29T17:11:12.776Z,100355.30
2023-01-29T17:13:43.021Z,100352.20
2023-01-29T17:16:27.880Z,100348.77
2023-01-29T17:18:55.991Z,100344.83
2023-01-29T17:21:24.897Z,100340.06
2023-01-29T17:23:51.872Z,100336.86
2023-01-29T17:26:19.163Z,100333.80
2023-01-29T17:28:47.081Z,100330.91
2023-01-29T17:31:13.991Z,100324.92
2023-01-29T17:33:44.239Z,100320.64
2023-01-29T17:36:14.695Z,100318.80
2023-01-29T17:38:42.187Z,100309.92
2023-01-29T17:41:13.379Z,100309.09
2023-01-29T17:43:40.241Z,100305.52
2023-01-29T17:46:07.688Z,100301.03
2023-01-29T17:48:34.796Z,100298.96
2023-01-29T17:51:04.605Z,100290.41
2023-01-29T17:53:45.241Z,100283.27
2023-01-29T17:56:21.820Z,100277.12
2023-01-29T17:58:48.794Z,100273.55
2023-01-29T18:01:15.681Z,100267.74
2023-01-29T18:03:42.674Z,100260.91
2023-01-29T18:06:12.565Z,100258.86
2023-01-29T18:08:40.863Z,100249.81
2023-01-29T18:11:08.111Z,100239.05
2023-01-29T18:13:36.531Z,100232.89
2023-01-29T18:16:03.508Z,100225.55
2023-01-29T18:18:30.824Z,100225.38
2023-01-29T18:20:57.708Z,100228.25
2023-01-29T18:23:24.766Z,100232.69
2023-01-29T18:25:52.791Z,100228.92
2023-01-29T18:28:20.409Z,100229.45
2023-01-29T18:30:48.023Z,100233.90
2023-01-29T18:33:15.585Z,100233.23
2023-01-29T18:35:44.241Z,100226.41
2023-01-29T18:38:11.048Z,100229.51
2023-01-29T18:40:38.047Z,100226.94
2023-01-29T18:43:05.455Z,100227.79
2023-01-29T18:45:32.609Z,100229.66
2023-01-29T18:47:59.951Z,100225.41
2023-01-29T18:50:27.544Z,100228.34
2023-01-29T18:52:55.416Z,100221.02
2023-01-29T18:55:22.682Z,100214.20
2023-01-29T18:58:28.307Z,100218.16
2023-01-29T19:00:40.394Z,100212.52
2023-01-29T19:03:07.592Z,100211.35
2023-01-29T19:05:37.516Z,100211.86
2023-01-29T19:08:12.536Z,100211.19
2023-01-29T19:10:40.622Z,100210.34
2023-01-29T19:13:07.760Z,100206.58
2023-01-29T19:15:35.817Z,100203.02
2023-01-29T19:18:04.284Z,100204.72
2023-01-29T19:20:31.082Z,100205.76
2023-01-29T19:22:58.227Z,100203.37
2023-01-29T19:25:25.133Z,100206.98
2023-01-29T19:27:52.121Z,100193.48
2023-01-29T19:30:20.233Z,100189.89
2023-01-29T19:32:47.911Z,100187.34
2023-01-29T19:35:14.777Z,100178.48
2023-01-29T19:37:41.968Z,100181.40
2023-01-29T19:40:10.800Z,100177.98
2023-01-29T19:42:38.507Z,100175.08
2023-01-29T19:45:10.162Z,100172.33
2023-01-29T19:47:41.476Z,100166.02
2023-01-29T19:50:10.329Z,100165.84
2023-01-29T19:52:50.876Z,100165.15
2023-01-29T19:55:19.717Z,100163.62
2023-01-29T19:57:47.510Z,100161.73
2023-01-29T20:00:17.556Z,100158.49
2023-01-29T20:02:44.733Z,100155.41
2023-01-29T20:05:13.373Z,100153.70
2023-01-29T20:07:42.392Z,100150.80
2023-01-29T20:10:18.246Z,100141.09
2023-01-29T20:12:46.344Z,100138.89
2023-01-29T20:15:13.627Z,100134.29
2023-01-29T20:17:40.964Z,100126.93
2023-01-29T20:20:09.454Z,100121.27
2023-01-29T20:22:36.722Z,100122.29
2023-01-29T20:25:03.567Z,100112.02
2023-01-29T20:27:31.757Z,100110.99
2023-01-29T20:29:59.789Z,100110.48
2023-01-29T20:32:26.735Z,100113.23
2023-01-29T20:34:53.525Z,100104.84
2023-01-29T20:37:20.540Z,100095.79
2023-01-29T20:39:47.596Z,100082.80
2023-01-29T20:42:14.523Z,100076.80
2023-01-29T20:44:42.069Z,100071.52
2023-01-29T20:47:09.699Z,100065.52
2023-01-29T20:49:36.908Z,100065.70
2023-01-29T20:52:03.927Z,100064.34
2023-01-29T20:54:33.375Z,100060.09
2023-01-29T20:57:00.392Z,100060.81
2023-01-29T20:59:29.120Z,100057.73
2023-01-29T21:01:56.786Z,100057.02
2023-01-29T21:04:24.060Z,100052.55
2023-01-29T21:06:51.125Z,100043.48
2023-01-29T21:09:18.073Z,100046.39
2023-01-29T21:11:45.931Z,100048.10
2023-01-29T21:14:14.229Z,100049.48
2023-01-29T21:16:41.703Z,100048.99
2023-01-29T21:19:08.549Z,100044.20
2023-01-29T21:21:37.784Z,100040.93
2023-01-29T21:24:05.035Z,100039.55
2023-01-29T21:26:32.025Z,100045.02
2023-01-29T21:28:59.490Z,100041.09
2023-01-29T21:31:26.658Z,100038.69
2023-01-29T21:33:53.497Z,100037.84
2023-01-29T21:36:20.702Z,100038.52
2023-01-29T21:38:47.541Z,100037.33
2023-01-29T21:41:14.519Z,100032.71
2023-01-29T21:43:41.836Z,100032.03
2023-01-29T21:46:12.517Z,100031.17
2023-01-29T21:48:39.983Z,100026.39
2023-01-29T21:51:07.883Z,100022.98
2023-01-29T21:53:35.169Z,100013.06
2023-01-29T21:56:04.017Z,100005.37
2023-01-29T21:58:30.944Z,100004.00
2023-01-29T22:01:36.128Z,100000.59
2023-01-29T22:03:47.386Z,99994.28
2023-01-29T22:06:14.745Z,99992.73
2023-01-29T22:08:41.571Z,99987.45
2023-01-29T22:11:10.224Z,99989.18
2023-01-29T22:13:37.684Z,99983.38
2023-01-29T22:16:06.069Z,99979.47
2023-01-29T22:18:32.944Z,99975.19
2023-01-29T22:21:02.669Z,99971.27
2023-01-29T22:23:29.968Z,99966.48
2023-01-29T22:26:03.096Z,99961.19
2023-01-29T22:28:30.018Z,99952.65
2023-01-29T22:31:01.126Z,99942.05
2023-01-29T22:33:28.066Z,99936.42
2023-01-29T22:35:57.915Z,99936.60
2023-01-29T22:38:24.784Z,99932.83
2023-01-29T22:40:53.656Z,99917.78
2023-01-29T22:43:25.956Z,99915.58
2023-01-29T22:45:53.063Z,99909.27
2023-01-29T22:48:20.559Z,99902.08
2023-01-29T22:50:53.939Z,99897.98
2023-01-29T22:53:24.096Z,99893.72
2023-01-29T22:55:57.281Z,99884.83
2023-01-29T22:58:24.354Z,99880.39
2023-01-29T23:00:53.564Z,99866.54
2023-01-29T23:03:20.474Z,99859.71
2023-01-29T23:05:47.308Z,99860.73
2023-01-29T23:08:14.660Z,99849.45
2023-01-29T23:10:43.223Z,99846.90
2023-01-29T23:13:09.980Z,99839.73
2023-01-29T23:15:36.826Z,99837.16
2023-01-29T23:18:03.680Z,99833.58
2023-01-29T23:20:30.593Z,99837.34
2023-01-29T23:22:57.625Z,99833.11
2023-01-29T23:25:44.889Z,99828.16
2023-01-29T23:28:10.239Z,99820.81
2023-01-29T23:30:37.358Z,99820.30
2023-01-29T23:33:04.620Z,99812.61
2023-01-29T23:35:31.639Z,99812.79
2023-01-29T23:37:58.893Z,99813.85
2023-01-29T23:40:25.698Z,99803.59
2023-01-29T23:42:52.567Z,99799.48
2023-01-29T23:45:19.309Z,99801.37
2023-01-29T23:47:46.199Z,99795.73
2023-01-29T23:50:14.734Z,99791.45
2023-01-29T23:52:41.661Z,99789.58
2023-01-29T23:55:10.596Z,99787.18
2023-01-29T23:57:37.776Z,99786.17
